sensor_id;sensor_type;location;lat;lon;timestamp;P1;durP1;ratioP1;P2;durP2;ratioP2
83552;SDS011;73510;50.866;5.420;2024-01-30T00:01:52;12.60;;;6.55;;
83552;SDS011;73510;50.866;5.420;2024-01-30T00:04:18;9.82;;;6.60;;
83552;SDS011;73510;50.866;5.420;2024-01-30T00:06:44;12.68;;;6.78;;
83552;SDS011;73510;50.866;5.420;2024-01-30T00:09:10;10.45;;;6.93;;
83552;SDS011;73510;50.866;5.420;2024-01-30T00:11:36;9.55;;;5.80;;
83552;SDS011;73510;50.866;5.420;2024-01-30T00:14:03;13.45;;;7.32;;
83552;SDS011;73510;50.866;5.420;2024-01-30T00:16:29;11.35;;;6.88;;
83552;SDS011;73510;50.866;5.420;2024-01-30T00:18:56;10.20;;;6.68;;
83552;SDS011;73510;50.866;5.420;2024-01-30T00:21:22;10.75;;;7.32;;
83552;SDS011;73510;50.866;5.420;2024-01-30T00:23:49;10.07;;;6.60;;
83552;SDS011;73510;50.866;5.420;2024-01-30T00:26:15;10.43;;;7.15;;
83552;SDS011;73510;50.866;5.420;2024-01-30T00:28:41;10.18;;;7.03;;
83552;SDS011;73510;50.866;5.420;2024-01-30T00:31:07;10.57;;;6.25;;
83552;SDS011;73510;50.866;5.420;2024-01-30T00:33:34;11.10;;;7.93;;
83552;SDS011;73510;50.866;5.420;2024-01-30T00:35:59;12.43;;;6.85;;
83552;SDS011;73510;50.866;5.420;2024-01-30T00:38:25;9.98;;;6.13;;
83552;SDS011;73510;50.866;5.420;2024-01-30T00:40:51;13.73;;;6.18;;
83552;SDS011;73510;50.866;5.420;2024-01-30T00:43:17;9.75;;;6.30;;
83552;SDS011;73510;50.866;5.420;2024-01-30T00:45:43;7.57;;;5.28;;
83552;SDS011;73510;50.866;5.420;2024-01-30T00:48:09;8.90;;;5.63;;
83552;SDS011;73510;50.866;5.420;2024-01-30T00:50:35;9.57;;;5.68;;
83552;SDS011;73510;50.866;5.420;2024-01-30T00:53:00;7.68;;;5.90;;
83552;SDS011;73510;50.866;5.420;2024-01-30T00:55:26;9.48;;;6.38;;
83552;SDS011;73510;50.866;5.420;2024-01-30T00:57:52;10.60;;;7.38;;
83552;SDS011;73510;50.866;5.420;2024-01-30T01:00:18;10.07;;;6.53;;
83552;SDS011;73510;50.866;5.420;2024-01-30T01:02:45;10.35;;;7.38;;
83552;SDS011;73510;50.866;5.420;2024-01-30T01:05:12;9.77;;;7.28;;
83552;SDS011;73510;50.866;5.420;2024-01-30T01:07:38;13.63;;;8.65;;
83552;SDS011;73510;50.866;5.420;2024-01-30T01:10:05;13.77;;;8.13;;
83552;SDS011;73510;50.866;5.420;2024-01-30T01:12:31;11.88;;;7.40;;
83552;SDS011;73510;50.866;5.420;2024-01-30T01:14:57;13.85;;;7.70;;
83552;SDS011;73510;50.866;5.420;2024-01-30T01:17:22;12.00;;;7.32;;
83552;SDS011;73510;50.866;5.420;2024-01-30T01:19:48;9.90;;;6.85;;
83552;SDS011;73510;50.866;5.420;2024-01-30T01:22:15;7.97;;;6.65;;
83552;SDS011;73510;50.866;5.420;2024-01-30T01:24:42;11.65;;;6.68;;
83552;SDS011;73510;50.866;5.420;2024-01-30T01:27:07;10.48;;;6.65;;
83552;SDS011;73510;50.866;5.420;2024-01-30T01:29:33;10.30;;;5.60;;
83552;SDS011;73510;50.866;5.420;2024-01-30T01:31:59;10.35;;;6.47;;
83552;SDS011;73510;50.866;5.420;2024-01-30T01:34:25;8.75;;;5.93;;
83552;SDS011;73510;50.866;5.420;2024-01-30T01:36:50;8.15;;;5.40;;
83552;SDS011;73510;50.866;5.420;2024-01-30T01:39:16;7.65;;;5.55;;
83552;SDS011;73510;50.866;5.420;2024-01-30T01:41:43;11.15;;;5.40;;
83552;SDS011;73510;50.866;5.420;2024-01-30T01:44:09;7.82;;;5.57;;
83552;SDS011;73510;50.866;5.420;2024-01-30T01:46:35;8.07;;;5.18;;
83552;SDS011;73510;50.866;5.420;2024-01-30T01:49:02;8.85;;;5.90;;
83552;SDS011;73510;50.866;5.420;2024-01-30T01:51:29;6.47;;;4.85;;
83552;SDS011;73510;50.866;5.420;2024-01-30T01:53:58;9.32;;;5.28;;
83552;SDS011;73510;50.866;5.420;2024-01-30T01:56:26;8.35;;;4.82;;
83552;SDS011;73510;50.866;5.420;2024-01-30T01:58:54;9.88;;;6.65;;
83552;SDS011;73510;50.866;5.420;2024-01-30T02:01:21;8.63;;;5.32;;
83552;SDS011;73510;50.866;5.420;2024-01-30T02:03:48;6.90;;;4.80;;
83552;SDS011;73510;50.866;5.420;2024-01-30T02:06:14;9.20;;;5.85;;
83552;SDS011;73510;50.866;5.420;2024-01-30T02:08:41;6.38;;;4.72;;
83552;SDS011;73510;50.866;5.420;2024-01-30T02:11:06;7.85;;;5.65;;
83552;SDS011;73510;50.866;5.420;2024-01-30T02:13:33;8.45;;;6.07;;
83552;SDS011;73510;50.866;5.420;2024-01-30T02:15:59;6.65;;;5.03;;
83552;SDS011;73510;50.866;5.420;2024-01-30T02:18:26;8.43;;;5.60;;
83552;SDS011;73510;50.866;5.420;2024-01-30T02:20:53;8.23;;;4.95;;
83552;SDS011;73510;50.866;5.420;2024-01-30T02:23:21;6.40;;;4.93;;
83552;SDS011;73510;50.866;5.420;2024-01-30T02:25:53;7.82;;;4.93;;
83552;SDS011;73510;50.866;5.420;2024-01-30T02:28:19;7.60;;;5.20;;
83552;SDS011;73510;50.866;5.420;2024-01-30T02:30:45;5.93;;;4.68;;
83552;SDS011;73510;50.866;5.420;2024-01-30T02:33:12;8.40;;;4.53;;
83552;SDS011;73510;50.866;5.420;2024-01-30T02:35:38;7.00;;;4.63;;
83552;SDS011;73510;50.866;5.420;2024-01-30T02:38:04;6.82;;;4.60;;
83552;SDS011;73510;50.866;5.420;2024-01-30T02:40:30;6.00;;;4.78;;
83552;SDS011;73510;50.866;5.420;2024-01-30T02:42:57;6.10;;;4.72;;
83552;SDS011;73510;50.866;5.420;2024-01-30T02:45:23;7.80;;;4.40;;
83552;SDS011;73510;50.866;5.420;2024-01-30T02:47:49;7.72;;;4.82;;
83552;SDS011;73510;50.866;5.420;2024-01-30T02:50:15;6.80;;;4.78;;
83552;SDS011;73510;50.866;5.420;2024-01-30T02:52:41;6.88;;;5.10;;
83552;SDS011;73510;50.866;5.420;2024-01-30T02:55:09;5.68;;;4.13;;
83552;SDS011;73510;50.866;5.420;2024-01-30T02:57:34;6.05;;;4.55;;
83552;SDS011;73510;50.866;5.420;2024-01-30T03:00:00;7.35;;;4.32;;
83552;SDS011;73510;50.866;5.420;2024-01-30T03:02:26;9.35;;;4.75;;
83552;SDS011;73510;50.866;5.420;2024-01-30T03:04:52;7.38;;;4.95;;
83552;SDS011;73510;50.866;5.420;2024-01-30T03:07:18;7.07;;;3.95;;
83552;SDS011;73510;50.866;5.420;2024-01-30T03:09:44;9.05;;;5.15;;
83552;SDS011;73510;50.866;5.420;2024-01-30T03:12:09;6.03;;;3.85;;
83552;SDS011;73510;50.866;5.420;2024-01-30T03:14:35;7.90;;;4.60;;
83552;SDS011;73510;50.866;5.420;2024-01-30T03:17:01;6.80;;;4.20;;
83552;SDS011;73510;50.866;5.420;2024-01-30T03:19:27;6.97;;;4.00;;
83552;SDS011;73510;50.866;5.420;2024-01-30T03:21:54;7.53;;;4.43;;
83552;SDS011;73510;50.866;5.420;2024-01-30T03:24:19;6.13;;;4.10;;
83552;SDS011;73510;50.866;5.420;2024-01-30T03:26:45;6.78;;;4.35;;
83552;SDS011;73510;50.866;5.420;2024-01-30T03:29:11;7.65;;;4.35;;
83552;SDS011;73510;50.866;5.420;2024-01-30T03:31:37;6.55;;;4.40;;
83552;SDS011;73510;50.866;5.420;2024-01-30T03:34:03;6.30;;;4.35;;
83552;SDS011;73510;50.866;5.420;2024-01-30T03:36:29;5.10;;;3.75;;
83552;SDS011;73510;50.866;5.420;2024-01-30T03:38:57;4.80;;;3.47;;
83552;SDS011;73510;50.866;5.420;2024-01-30T03:41:23;5.07;;;4.00;;
83552;SDS011;73510;50.866;5.420;2024-01-30T03:43:50;5.97;;;4.10;;
83552;SDS011;73510;50.866;5.420;2024-01-30T03:46:15;5.78;;;3.92;;
83552;SDS011;73510;50.866;5.420;2024-01-30T03:48:41;4.65;;;3.70;;
83552;SDS011;73510;50.866;5.420;2024-01-30T03:51:07;7.55;;;4.55;;
83552;SDS011;73510;50.866;5.420;2024-01-30T03:53:33;5.57;;;4.00;;
83552;SDS011;73510;50.866;5.420;2024-01-30T03:55:59;4.93;;;3.72;;
83552;SDS011;73510;50.866;5.420;2024-01-30T03:58:25;8.10;;;4.25;;
83552;SDS011;73510;50.866;5.420;2024-01-30T04:00:50;6.03;;;3.80;;
83552;SDS011;73510;50.866;5.420;2024-01-30T04:03:17;6.90;;;4.07;;
83552;SDS011;73510;50.866;5.420;2024-01-30T04:05:46;4.85;;;4.00;;
83552;SDS011;73510;50.866;5.420;2024-01-30T04:08:12;7.75;;;4.18;;
83552;SDS011;73510;50.866;5.420;2024-01-30T04:10:37;6.15;;;4.30;;
83552;SDS011;73510;50.866;5.420;2024-01-30T04:13:03;5.35;;;3.80;;
83552;SDS011;73510;50.866;5.420;2024-01-30T04:15:29;6.25;;;4.15;;
83552;SDS011;73510;50.866;5.420;2024-01-30T04:17:57;7.25;;;3.95;;
83552;SDS011;73510;50.866;5.420;2024-01-30T04:20:24;5.72;;;4.10;;
83552;SDS011;73510;50.866;5.420;2024-01-30T04:22:50;6.07;;;4.07;;
83552;SDS011;73510;50.866;5.420;2024-01-30T04:25:16;6.28;;;4.53;;
83552;SDS011;73510;50.866;5.420;2024-01-30T04:27:42;5.95;;;4.40;;
83552;SDS011;73510;50.866;5.420;2024-01-30T04:30:08;6.53;;;4.38;;
83552;SDS011;73510;50.866;5.420;2024-01-30T04:32:34;7.32;;;4.65;;
83552;SDS011;73510;50.866;5.420;2024-01-30T04:35:00;7.55;;;5.10;;
83552;SDS011;73510;50.866;5.420;2024-01-30T04:37:26;9.55;;;4.50;;
83552;SDS011;73510;50.866;5.420;2024-01-30T04:39:52;7.55;;;4.60;;
83552;SDS011;73510;50.866;5.420;2024-01-30T04:42:17;6.55;;;4.20;;
83552;SDS011;73510;50.866;5.420;2024-01-30T04:44:43;9.07;;;4.90;;
83552;SDS011;73510;50.866;5.420;2024-01-30T04:47:08;5.28;;;4.50;;
83552;SDS011;73510;50.866;5.420;2024-01-30T04:49:37;8.25;;;4.75;;
83552;SDS011;73510;50.866;5.420;2024-01-30T04:52:04;7.30;;;4.63;;
83552;SDS011;73510;50.866;5.420;2024-01-30T04:54:32;6.80;;;5.05;;
83552;SDS011;73510;50.866;5.420;2024-01-30T04:56:58;7.07;;;4.55;;
83552;SDS011;73510;50.866;5.420;2024-01-30T04:59:24;7.32;;;4.45;;
83552;SDS011;73510;50.866;5.420;2024-01-30T05:01:49;7.70;;;4.80;;
83552;SDS011;73510;50.866;5.420;2024-01-30T05:04:16;6.50;;;4.60;;
83552;SDS011;73510;50.866;5.420;2024-01-30T05:06:41;6.65;;;4.95;;
83552;SDS011;73510;50.866;5.420;2024-01-30T05:09:08;8.45;;;4.72;;
83552;SDS011;73510;50.866;5.420;2024-01-30T05:11:40;6.88;;;4.72;;
83552;SDS011;73510;50.866;5.420;2024-01-30T05:14:06;9.20;;;4.38;;
83552;SDS011;73510;50.866;5.420;2024-01-30T05:16:32;5.90;;;4.20;;
83552;SDS011;73510;50.866;5.420;2024-01-30T05:18:58;8.70;;;4.63;;
83552;SDS011;73510;50.866;5.420;2024-01-30T05:21:25;8.07;;;4.75;;
83552;SDS011;73510;50.866;5.420;2024-01-30T05:23:50;6.47;;;4.40;;
83552;SDS011;73510;50.866;5.420;2024-01-30T05:26:16;7.85;;;5.22;;
83552;SDS011;73510;50.866;5.420;2024-01-30T05:28:42;6.47;;;4.43;;
83552;SDS011;73510;50.866;5.420;2024-01-30T05:31:09;5.70;;;4.10;;
83552;SDS011;73510;50.866;5.420;2024-01-30T05:33:35;6.75;;;4.40;;
83552;SDS011;73510;50.866;5.420;2024-01-30T05:36:01;9.30;;;4.57;;
83552;SDS011;73510;50.866;5.420;2024-01-30T05:38:29;6.40;;;4.20;;
83552;SDS011;73510;50.866;5.420;2024-01-30T05:40:55;6.18;;;3.92;;
83552;SDS011;73510;50.866;5.420;2024-01-30T05:43:23;6.10;;;4.40;;
83552;SDS011;73510;50.866;5.420;2024-01-30T05:45:49;6.43;;;4.43;;
83552;SDS011;73510;50.866;5.420;2024-01-30T05:48:15;5.32;;;4.53;;
83552;SDS011;73510;50.866;5.420;2024-01-30T05:50:41;6.25;;;4.55;;
83552;SDS011;73510;50.866;5.420;2024-01-30T05:53:06;4.90;;;3.60;;
83552;SDS011;73510;50.866;5.420;2024-01-30T05:55:32;8.98;;;4.70;;
83552;SDS011;73510;50.866;5.420;2024-01-30T05:57:58;6.38;;;4.18;;
83552;SDS011;73510;50.866;5.420;2024-01-30T06:00:23;7.35;;;4.13;;
83552;SDS011;73510;50.866;5.420;2024-01-30T06:02:49;8.05;;;4.47;;
83552;SDS011;73510;50.866;5.420;2024-01-30T06:05:15;5.05;;;3.92;;
83552;SDS011;73510;50.866;5.420;2024-01-30T06:07:41;9.25;;;4.22;;
83552;SDS011;73510;50.866;5.420;2024-01-30T06:10:07;9.27;;;4.45;;
83552;SDS011;73510;50.866;5.420;2024-01-30T06:12:34;5.82;;;4.30;;
83552;SDS011;73510;50.866;5.420;2024-01-30T06:15:00;6.68;;;4.15;;
83552;SDS011;73510;50.866;5.420;2024-01-30T06:17:26;6.95;;;4.15;;
83552;SDS011;73510;50.866;5.420;2024-01-30T06:19:51;8.15;;;5.05;;
83552;SDS011;73510;50.866;5.420;2024-01-30T06:22:17;6.75;;;4.18;;
83552;SDS011;73510;50.866;5.420;2024-01-30T06:24:43;7.05;;;4.53;;
83552;SDS011;73510;50.866;5.420;2024-01-30T06:27:10;5.88;;;3.75;;
83552;SDS011;73510;50.866;5.420;2024-01-30T06:29:36;5.20;;;3.70;;
83552;SDS011;73510;50.866;5.420;2024-01-30T06:32:01;6.32;;;3.78;;
83552;SDS011;73510;50.866;5.420;2024-01-30T06:34:27;5.60;;;4.47;;
83552;SDS011;73510;50.866;5.420;2024-01-30T06:36:53;5.15;;;3.92;;
83552;SDS011;73510;50.866;5.420;2024-01-30T06:39:18;5.50;;;3.88;;
83552;SDS011;73510;50.866;5.420;2024-01-30T06:41:46;7.55;;;4.75;;
83552;SDS011;73510;50.866;5.420;2024-01-30T06:44:12;6.75;;;4.57;;
83552;SDS011;73510;50.866;5.420;2024-01-30T06:46:38;7.00;;;4.50;;
83552;SDS011;73510;50.866;5.420;2024-01-30T06:49:04;7.72;;;3.70;;
83552;SDS011;73510;50.866;5.420;2024-01-30T06:51:30;9.23;;;4.80;;
83552;SDS011;73510;50.866;5.420;2024-01-30T06:53:56;5.90;;;4.03;;
83552;SDS011;73510;50.866;5.420;2024-01-30T06:56:21;7.70;;;6.15;;
83552;SDS011;73510;50.866;5.420;2024-01-30T06:58:48;17.50;;;11.93;;
83552;SDS011;73510;50.866;5.420;2024-01-30T07:01:14;12.02;;;9.93;;
83552;SDS011;73510;50.866;5.420;2024-01-30T07:03:40;9.88;;;8.60;;
83552;SDS011;73510;50.866;5.420;2024-01-30T07:06:06;7.13;;;5.28;;
83552;SDS011;73510;50.866;5.420;2024-01-30T07:08:32;6.78;;;3.85;;
83552;SDS011;73510;50.866;5.420;2024-01-30T07:10:58;6.28;;;4.05;;
83552;SDS011;73510;50.866;5.420;2024-01-30T07:13:24;8.02;;;4.45;;
83552;SDS011;73510;50.866;5.420;2024-01-30T07:15:50;6.50;;;4.00;;
83552;SDS011;73510;50.866;5.420;2024-01-30T07:18:15;6.07;;;4.60;;
83552;SDS011;73510;50.866;5.420;2024-01-30T07:20:41;7.13;;;4.25;;
83552;SDS011;73510;50.866;5.420;2024-01-30T07:23:11;7.65;;;4.38;;
83552;SDS011;73510;50.866;5.420;2024-01-30T07:25:42;5.90;;;3.97;;
83552;SDS011;73510;50.866;5.420;2024-01-30T07:28:09;8.68;;;4.65;;
83552;SDS011;73510;50.866;5.420;2024-01-30T07:30:36;6.78;;;4.50;;
83552;SDS011;73510;50.866;5.420;2024-01-30T07:33:01;6.50;;;4.47;;
83552;SDS011;73510;50.866;5.420;2024-01-30T07:35:27;5.90;;;3.78;;
83552;SDS011;73510;50.866;5.420;2024-01-30T07:37:53;5.82;;;3.88;;
83552;SDS011;73510;50.866;5.420;2024-01-30T07:40:19;8.95;;;4.95;;
83552;SDS011;73510;50.866;5.420;2024-01-30T07:42:44;6.22;;;4.32;;
83552;SDS011;73510;50.866;5.420;2024-01-30T07:45:11;4.72;;;4.15;;
83552;SDS011;73510;50.866;5.420;2024-01-30T07:47:36;6.38;;;4.43;;
83552;SDS011;73510;50.866;5.420;2024-01-30T07:50:02;8.93;;;4.53;;
83552;SDS011;73510;50.866;5.420;2024-01-30T07:52:28;5.78;;;4.30;;
83552;SDS011;73510;50.866;5.420;2024-01-30T07:54:54;5.50;;;4.10;;
83552;SDS011;73510;50.866;5.420;2024-01-30T07:57:20;8.80;;;4.10;;
83552;SDS011;73510;50.866;5.420;2024-01-30T07:59:46;6.53;;;3.97;;
83552;SDS011;73510;50.866;5.420;2024-01-30T08:02:12;8.82;;;5.35;;
83552;SDS011;73510;50.866;5.420;2024-01-30T08:04:38;5.80;;;4.57;;
83552;SDS011;73510;50.866;5.420;2024-01-30T08:07:04;10.13;;;4.55;;
83552;SDS011;73510;50.866;5.420;2024-01-30T08:09:30;7.68;;;4.55;;
83552;SDS011;73510;50.866;5.420;2024-01-30T08:11:56;6.82;;;4.28;;
83552;SDS011;73510;50.866;5.420;2024-01-30T08:14:21;7.38;;;4.28;;
83552;SDS011;73510;50.866;5.420;2024-01-30T08:16:47;6.07;;;4.25;;
83552;SDS011;73510;50.866;5.420;2024-01-30T08:19:14;5.95;;;4.45;;
83552;SDS011;73510;50.866;5.420;2024-01-30T08:21:40;6.93;;;4.43;;
83552;SDS011;73510;50.866;5.420;2024-01-30T08:24:06;6.03;;;4.57;;
83552;SDS011;73510;50.866;5.420;2024-01-30T08:26:32;11.18;;;4.90;;
83552;SDS011;73510;50.866;5.420;2024-01-30T08:28:59;7.57;;;4.65;;
83552;SDS011;73510;50.866;5.420;2024-01-30T08:31:24;5.75;;;4.30;;
83552;SDS011;73510;50.866;5.420;2024-01-30T08:33:50;7.05;;;4.57;;
83552;SDS011;73510;50.866;5.420;2024-01-30T08:36:16;7.18;;;4.57;;
83552;SDS011;73510;50.866;5.420;2024-01-30T08:38:42;6.32;;;4.50;;
83552;SDS011;73510;50.866;5.420;2024-01-30T08:41:09;7.07;;;4.20;;
83552;SDS011;73510;50.866;5.420;2024-01-30T08:43:34;6.95;;;4.35;;
83552;SDS011;73510;50.866;5.420;2024-01-30T08:46:01;7.43;;;3.90;;
83552;SDS011;73510;50.866;5.420;2024-01-30T08:48:28;6.22;;;4.25;;
83552;SDS011;73510;50.866;5.420;2024-01-30T08:50:53;9.00;;;4.28;;
83552;SDS011;73510;50.866;5.420;2024-01-30T08:53:19;6.35;;;4.38;;
83552;SDS011;73510;50.866;5.420;2024-01-30T08:55:45;5.82;;;3.50;;
83552;SDS011;73510;50.866;5.420;2024-01-30T08:58:10;7.63;;;4.68;;
83552;SDS011;73510;50.866;5.420;2024-01-30T09:00:36;8.48;;;4.75;;
83552;SDS011;73510;50.866;5.420;2024-01-30T09:03:02;6.57;;;3.72;;
83552;SDS011;73510;50.866;5.420;2024-01-30T09:05:28;9.93;;;4.93;;
83552;SDS011;73510;50.866;5.420;2024-01-30T09:07:54;7.18;;;4.85;;
83552;SDS011;73510;50.866;5.420;2024-01-30T09:10:20;6.82;;;4.30;;
83552;SDS011;73510;50.866;5.420;2024-01-30T09:12:45;4.95;;;4.30;;
83552;SDS011;73510;50.866;5.420;2024-01-30T09:15:11;6.65;;;4.28;;
83552;SDS011;73510;50.866;5.420;2024-01-30T09:17:37;9.15;;;4.10;;
83552;SDS011;73510;50.866;5.420;2024-01-30T09:20:03;7.28;;;4.07;;
83552;SDS011;73510;50.866;5.420;2024-01-30T09:22:30;7.78;;;4.72;;
83552;SDS011;73510;50.866;5.420;2024-01-30T09:24:56;7.63;;;4.93;;
83552;SDS011;73510;50.866;5.420;2024-01-30T09:27:22;12.88;;;4.97;;
83552;SDS011;73510;50.866;5.420;2024-01-30T09:29:48;7.28;;;4.80;;
83552;SDS011;73510;50.866;5.420;2024-01-30T09:32:13;6.38;;;4.43;;
83552;SDS011;73510;50.866;5.420;2024-01-30T09:34:39;8.30;;;4.55;;
83552;SDS011;73510;50.866;5.420;2024-01-30T09:37:05;8.30;;;4.65;;
83552;SDS011;73510;50.866;5.420;2024-01-30T09:39:30;7.45;;;4.38;;
83552;SDS011;73510;50.866;5.420;2024-01-30T09:44:37;6.85;;;5.10;;
83552;SDS011;73510;50.866;5.420;2024-01-30T09:47:07;8.18;;;4.75;;
83552;SDS011;73510;50.866;5.420;2024-01-30T09:49:33;8.15;;;4.43;;
83552;SDS011;73510;50.866;5.420;2024-01-30T09:52:00;6.70;;;4.65;;
83552;SDS011;73510;50.866;5.420;2024-01-30T09:54:28;9.10;;;4.72;;
83552;SDS011;73510;50.866;5.420;2024-01-30T09:56:55;8.02;;;4.50;;
83552;SDS011;73510;50.866;5.420;2024-01-30T09:59:21;5.53;;;4.28;;
83552;SDS011;73510;50.866;5.420;2024-01-30T10:01:47;7.30;;;4.28;;
83552;SDS011;73510;50.866;5.420;2024-01-30T10:04:14;6.85;;;4.50;;
83552;SDS011;73510;50.866;5.420;2024-01-30T10:06:40;7.93;;;4.45;;
83552;SDS011;73510;50.866;5.420;2024-01-30T10:09:06;8.02;;;4.25;;
83552;SDS011;73510;50.866;5.420;2024-01-30T10:11:33;7.95;;;4.30;;
83552;SDS011;73510;50.866;5.420;2024-01-30T10:13:59;8.82;;;4.63;;
83552;SDS011;73510;50.866;5.420;2024-01-30T10:16:25;7.35;;;4.38;;
83552;SDS011;73510;50.866;5.420;2024-01-30T10:18:51;10.30;;;5.00;;
83552;SDS011;73510;50.866;5.420;2024-01-30T10:21:17;7.85;;;5.07;;
83552;SDS011;73510;50.866;5.420;2024-01-30T10:23:43;7.25;;;4.68;;
83552;SDS011;73510;50.866;5.420;2024-01-30T10:26:12;7.65;;;4.00;;
83552;SDS011;73510;50.866;5.420;2024-01-30T10:28:38;10.82;;;4.47;;
83552;SDS011;73510;50.866;5.420;2024-01-30T10:31:04;8.00;;;5.10;;
83552;SDS011;73510;50.866;5.420;2024-01-30T10:33:30;8.02;;;5.03;;
83552;SDS011;73510;50.866;5.420;2024-01-30T10:36:00;8.82;;;4.30;;
83552;SDS011;73510;50.866;5.420;2024-01-30T10:38:30;8.60;;;5.22;;
83552;SDS011;73510;50.866;5.420;2024-01-30T10:40:57;9.35;;;4.68;;
83552;SDS011;73510;50.866;5.420;2024-01-30T10:43:25;8.50;;;5.30;;
83552;SDS011;73510;50.866;5.420;2024-01-30T10:46:00;9.82;;;4.80;;
83552;SDS011;73510;50.866;5.420;2024-01-30T10:48:43;11.82;;;4.63;;
83552;SDS011;73510;50.866;5.420;2024-01-30T10:51:13;8.73;;;4.70;;
83552;SDS011;73510;50.866;5.420;2024-01-30T10:53:40;11.68;;;4.85;;
83552;SDS011;73510;50.866;5.420;2024-01-30T10:56:09;7.05;;;4.53;;
83552;SDS011;73510;50.866;5.420;2024-01-30T10:58:36;9.45;;;5.32;;
83552;SDS011;73510;50.866;5.420;2024-01-30T11:01:03;8.85;;;5.30;;
83552;SDS011;73510;50.866;5.420;2024-01-30T11:03:30;5.80;;;3.92;;
83552;SDS011;73510;50.866;5.420;2024-01-30T11:06:02;11.52;;;5.10;;
83552;SDS011;73510;50.866;5.420;2024-01-30T11:08:28;10.52;;;5.57;;
83552;SDS011;73510;50.866;5.420;2024-01-30T11:10:57;8.23;;;5.13;;
83552;SDS011;73510;50.866;5.420;2024-01-30T11:13:30;8.82;;;6.15;;
83552;SDS011;73510;50.866;5.420;2024-01-30T11:16:05;12.75;;;5.32;;
83552;SDS011;73510;50.866;5.420;2024-01-30T11:18:32;9.02;;;5.65;;
83552;SDS011;73510;50.866;5.420;2024-01-30T11:21:00;8.55;;;4.45;;
83552;SDS011;73510;50.866;5.420;2024-01-30T11:23:30;9.77;;;5.00;;
83552;SDS011;73510;50.866;5.420;2024-01-30T11:25:59;10.15;;;6.53;;
83552;SDS011;73510;50.866;5.420;2024-01-30T11:28:25;10.02;;;4.85;;
83552;SDS011;73510;50.866;5.420;2024-01-30T11:31:02;8.52;;;6.07;;
83552;SDS011;73510;50.866;5.420;2024-01-30T11:33:29;9.57;;;5.30;;
83552;SDS011;73510;50.866;5.420;2024-01-30T11:35:57;10.57;;;6.32;;
83552;SDS011;73510;50.866;5.420;2024-01-30T11:38:26;9.60;;;5.20;;
83552;SDS011;73510;50.866;5.420;2024-01-30T11:40:53;9.35;;;5.43;;
83552;SDS011;73510;50.866;5.420;2024-01-30T11:43:21;11.50;;;5.13;;
83552;SDS011;73510;50.866;5.420;2024-01-30T11:45:47;10.70;;;5.50;;
83552;SDS011;73510;50.866;5.420;2024-01-30T11:48:13;8.68;;;5.25;;
83552;SDS011;73510;50.866;5.420;2024-01-30T11:50:39;12.65;;;5.72;;
83552;SDS011;73510;50.866;5.420;2024-01-30T11:53:09;8.75;;;5.60;;
83552;SDS011;73510;50.866;5.420;2024-01-30T11:55:35;11.45;;;6.10;;
83552;SDS011;73510;50.866;5.420;2024-01-30T11:58:02;11.57;;;5.93;;
83552;SDS011;73510;50.866;5.420;2024-01-30T12:00:29;8.93;;;5.55;;
83552;SDS011;73510;50.866;5.420;2024-01-30T12:02:56;12.25;;;6.03;;
83552;SDS011;73510;50.866;5.420;2024-01-30T12:05:22;14.32;;;5.93;;
83552;SDS011;73510;50.866;5.420;2024-01-30T12:07:49;11.70;;;5.32;;
83552;SDS011;73510;50.866;5.420;2024-01-30T12:10:15;10.68;;;6.05;;
83552;SDS011;73510;50.866;5.420;2024-01-30T12:12:43;12.05;;;6.43;;
83552;SDS011;73510;50.866;5.420;2024-01-30T12:15:15;13.23;;;6.85;;
83552;SDS011;73510;50.866;5.420;2024-01-30T12:17:42;9.10;;;5.72;;
83552;SDS011;73510;50.866;5.420;2024-01-30T12:20:08;9.32;;;6.13;;
83552;SDS011;73510;50.866;5.420;2024-01-30T12:22:36;10.15;;;6.38;;
83552;SDS011;73510;50.866;5.420;2024-01-30T12:25:08;9.25;;;6.25;;
83552;SDS011;73510;50.866;5.420;2024-01-30T12:27:38;12.05;;;6.68;;
83552;SDS011;73510;50.866;5.420;2024-01-30T12:30:05;13.25;;;7.00;;
83552;SDS011;73510;50.866;5.420;2024-01-30T12:32:34;9.55;;;6.20;;
83552;SDS011;73510;50.866;5.420;2024-01-30T12:35:02;10.32;;;7.07;;
83552;SDS011;73510;50.866;5.420;2024-01-30T12:37:29;11.43;;;6.50;;
83552;SDS011;73510;50.866;5.420;2024-01-30T12:39:55;11.05;;;5.93;;
83552;SDS011;73510;50.866;5.420;2024-01-30T12:42:22;10.23;;;6.35;;
83552;SDS011;73510;50.866;5.420;2024-01-30T12:44:48;11.93;;;6.47;;
83552;SDS011;73510;50.866;5.420;2024-01-30T12:47:14;15.70;;;7.07;;
83552;SDS011;73510;50.866;5.420;2024-01-30T12:49:43;12.00;;;6.22;;
83552;SDS011;73510;50.866;5.420;2024-01-30T12:52:13;10.45;;;6.45;;
83552;SDS011;73510;50.866;5.420;2024-01-30T12:54:41;12.20;;;6.15;;
83552;SDS011;73510;50.866;5.420;2024-01-30T12:57:07;13.90;;;6.53;;
83552;SDS011;73510;50.866;5.420;2024-01-30T12:59:32;8.27;;;5.05;;
83552;SDS011;73510;50.866;5.420;2024-01-30T13:01:59;6.80;;;4.45;;
83552;SDS011;73510;50.866;5.420;2024-01-30T13:04:27;12.43;;;6.30;;
83552;SDS011;73510;50.866;5.420;2024-01-30T13:06:53;14.90;;;6.35;;
83552;SDS011;73510;50.866;5.420;2024-01-30T13:09:19;9.77;;;6.03;;
83552;SDS011;73510;50.866;5.420;2024-01-30T13:11:45;9.48;;;5.15;;
83552;SDS011;73510;50.866;5.420;2024-01-30T13:14:11;5.57;;;3.85;;
83552;SDS011;73510;50.866;5.420;2024-01-30T13:16:36;6.63;;;3.25;;
83552;SDS011;73510;50.866;5.420;2024-01-30T13:19:02;10.65;;;2.13;;
83552;SDS011;73510;50.866;5.420;2024-01-30T13:21:28;6.10;;;2.20;;
83552;SDS011;73510;50.866;5.420;2024-01-30T13:23:54;5.07;;;2.20;;
83552;SDS011;73510;50.866;5.420;2024-01-30T13:26:20;3.17;;;1.90;;
83552;SDS011;73510;50.866;5.420;2024-01-30T13:28:46;5.63;;;2.33;;
83552;SDS011;73510;50.866;5.420;2024-01-30T13:31:13;3.83;;;1.70;;
83552;SDS011;73510;50.866;5.420;2024-01-30T13:33:39;3.60;;;1.35;;
83552;SDS011;73510;50.866;5.420;2024-01-30T13:36:06;2.42;;;1.17;;
83552;SDS011;73510;50.866;5.420;2024-01-30T13:38:36;1.88;;;0.98;;
83552;SDS011;73510;50.866;5.420;2024-01-30T13:41:01;2.63;;;0.95;;
83552;SDS011;73510;50.866;5.420;2024-01-30T13:43:27;4.28;;;1.30;;
83552;SDS011;73510;50.866;5.420;2024-01-30T13:45:54;2.72;;;0.90;;
83552;SDS011;73510;50.866;5.420;2024-01-30T13:48:20;4.72;;;1.10;;
83552;SDS011;73510;50.866;5.420;2024-01-30T13:50:46;2.45;;;1.05;;
83552;SDS011;73510;50.866;5.420;2024-01-30T13:53:12;3.10;;;1.30;;
83552;SDS011;73510;50.866;5.420;2024-01-30T13:55:38;3.50;;;1.13;;
83552;SDS011;73510;50.866;5.420;2024-01-30T13:58:04;3.78;;;1.15;;
83552;SDS011;73510;50.866;5.420;2024-01-30T14:00:30;3.30;;;1.20;;
83552;SDS011;73510;50.866;5.420;2024-01-30T14:02:57;1.80;;;0.90;;
83552;SDS011;73510;50.866;5.420;2024-01-30T14:05:23;2.65;;;0.93;;
83552;SDS011;73510;50.866;5.420;2024-01-30T14:07:50;1.02;;;0.80;;
83552;SDS011;73510;50.866;5.420;2024-01-30T14:10:16;6.53;;;1.25;;
83552;SDS011;73510;50.866;5.420;2024-01-30T14:12:43;2.55;;;0.60;;
83552;SDS011;73510;50.866;5.420;2024-01-30T14:15:09;4.32;;;1.30;;
83552;SDS011;73510;50.866;5.420;2024-01-30T14:17:37;2.72;;;1.15;;
83552;SDS011;73510;50.866;5.420;2024-01-30T14:20:03;3.28;;;0.98;;
83552;SDS011;73510;50.866;5.420;2024-01-30T14:22:30;2.45;;;0.98;;
83552;SDS011;73510;50.866;5.420;2024-01-30T14:24:56;0.90;;;0.65;;
83552;SDS011;73510;50.866;5.420;2024-01-30T14:27:22;1.85;;;0.80;;
83552;SDS011;73510;50.866;5.420;2024-01-30T14:29:48;2.22;;;1.00;;
83552;SDS011;73510;50.866;5.420;2024-01-30T14:32:13;2.65;;;0.95;;
83552;SDS011;73510;50.866;5.420;2024-01-30T14:34:39;3.03;;;0.40;;
83552;SDS011;73510;50.866;5.420;2024-01-30T14:37:05;2.20;;;0.50;;
83552;SDS011;73510;50.866;5.420;2024-01-30T14:39:31;0.50;;;0.50;;
83552;SDS011;73510;50.866;5.420;2024-01-30T14:41:58;1.33;;;0.22;;
83552;SDS011;73510;50.866;5.420;2024-01-30T14:44:24;0.80;;;0.28;;